createdAt,value
2023-05-15T00:00:18.695Z,101481.59
2023-05-15T00:02:20.789Z,101472.13
2023-05-15T00:04:23.218Z,101483.34
2023-05-15T00:06:25.490Z,101483.41
2023-05-15T00:08:27.503Z,101476.47
2023-05-15T00:10:29.495Z,101473.78
2023-05-15T00:12:31.494Z,101482.50
2023-05-15T00:14:33.600Z,101472.91
2023-05-15T00:16:36.097Z,101467.72
2023-05-15T00:18:38.575Z,101469.44
2023-05-15T00:20:41.207Z,101465.06
2023-05-15T00:22:43.244Z,101472.91
2023-05-15T00:24:45.248Z,101476.34
2023-05-15T00:26:47.340Z,101472.00
2023-05-15T00:28:49.565Z,101465.94
2023-05-15T00:30:52.503Z,101472.00
2023-05-15T00:32:55.010Z,101470.16
2023-05-15T00:34:56.979Z,101464.97
2023-05-15T00:37:00.602Z,101471.91
2023-05-15T00:39:02.916Z,101471.94
2023-05-15T00:41:08.142Z,101474.53
2023-05-15T00:43:12.320Z,101472.75
2023-05-15T00:45:17.441Z,101471.91
2023-05-15T00:47:21.496Z,101483.16
2023-05-15T00:49:24.292Z,101476.97
2023-05-15T00:51:28.371Z,101477.81
2023-05-15T00:53:30.634Z,101471.75
2023-05-15T00:55:34.072Z,101486.50
2023-05-15T00:57:36.647Z,101476.19
2023-05-15T00:59:40.285Z,101483.97
2023-05-15T01:01:45.333Z,101495.16
2023-05-15T01:03:47.409Z,101491.63
2023-05-15T01:05:49.960Z,101489.97
2023-05-15T01:08:05.449Z,101492.56
2023-05-15T01:10:09.164Z,101494.31
2023-05-15T01:12:12.309Z,101496.94
2023-05-15T01:14:14.246Z,101498.59
2023-05-15T01:16:16.310Z,101506.34
2023-05-15T01:18:18.646Z,101491.63
2023-05-15T01:20:23.172Z,101493.25
2023-05-15T01:22:35.185Z,101497.53
2023-05-15T01:24:43.659Z,101488.06
2023-05-15T01:26:51.986Z,101495.72
2023-05-15T01:29:01.735Z,101491.31
2023-05-15T01:31:15.918Z,101488.75
2023-05-15T01:33:24.440Z,101487.91
2023-05-15T01:35:30.239Z,101494.75
2023-05-15T01:37:37.081Z,101488.69
2023-05-15T01:39:42.099Z,101495.59
2023-05-15T01:41:52.539Z,101492.00
2023-05-15T01:44:01.087Z,101493.75
2023-05-15T01:46:06.009Z,101488.41
2023-05-15T01:48:09.310Z,101488.47
2023-05-15T01:50:15.276Z,101483.31
2023-05-15T01:52:25.565Z,101484.97
2023-05-15T01:54:30.393Z,101485.84
2023-05-15T01:56:33.247Z,101484.09
2023-05-15T01:58:37.636Z,101472.63
2023-05-15T02:00:40.915Z,101472.59
2023-05-15T02:02:44.228Z,101465.63
2023-05-15T02:04:46.999Z,101470.84
2023-05-15T02:06:50.564Z,101475.25
2023-05-15T02:08:55.038Z,101470.84
2023-05-15T02:11:00.708Z,101479.34
2023-05-15T02:13:02.931Z,101482.16
2023-05-15T02:15:06.659Z,101480.34
2023-05-15T02:17:08.772Z,101487.25
2023-05-15T02:19:10.958Z,101492.44
2023-05-15T02:21:13.278Z,101493.31
2023-05-15T02:23:15.257Z,101488.88
2023-05-15T02:25:17.586Z,101481.09
2023-05-15T02:27:27.339Z,101484.53
2023-05-15T02:29:38.775Z,101490.59
2023-05-15T02:31:52.505Z,101483.53
2023-05-15T02:34:04.087Z,101490.53
2023-05-15T02:36:09.829Z,101484.31
2023-05-15T02:38:17.207Z,101485.75
2023-05-15T02:40:20.944Z,101493.56
2023-05-15T02:42:23.468Z,101500.38
2023-05-15T02:44:26.535Z,101510.16
2023-05-15T02:46:29.749Z,101517.09
2023-05-15T02:48:32.460Z,101517.00
2023-05-15T02:50:34.635Z,101516.06
2023-05-15T02:52:36.619Z,101515.94
2023-05-15T02:54:38.900Z,101515.09
2023-05-15T02:56:41.115Z,101513.22
2023-05-15T02:58:43.368Z,101515.94
2023-05-15T03:00:45.373Z,101520.25
2023-05-15T03:02:47.605Z,101527.19
2023-05-15T03:04:49.732Z,101526.16
2023-05-15T03:06:51.832Z,101528.81
2023-05-15T03:08:53.850Z,101527.75
2023-05-15T03:10:55.928Z,101524.41
2023-05-15T03:12:58.898Z,101533.06
2023-05-15T03:15:01.886Z,101526.03
2023-05-15T03:17:04.316Z,101532.88
2023-05-15T03:19:06.725Z,101533.06
2023-05-15T03:21:08.931Z,101527.03
2023-05-15T03:23:11.086Z,101536.25
2023-05-15T03:25:13.261Z,101528.56
2023-05-15T03:27:15.662Z,101531.09
2023-05-15T03:29:17.805Z,101520.63
2023-05-15T03:31:20.157Z,101525.00
2023-05-15T03:33:22.386Z,101520.38
2023-05-15T03:35:24.991Z,101510.16
2023-05-15T03:37:27.197Z,101508.09
2023-05-15T03:39:29.261Z,101515.81
2023-05-15T03:41:31.635Z,101516.72
2023-05-15T03:43:33.882Z,101516.66
2023-05-15T03:45:37.283Z,101520.84
2023-05-15T03:47:39.378Z,101517.47
2023-05-15T03:49:42.023Z,101522.63
2023-05-15T03:51:44.057Z,101529.44
2023-05-15T03:53:46.262Z,101524.41
2023-05-15T03:55:48.421Z,101531.34
2023-05-15T03:57:50.798Z,101536.47
2023-05-15T03:59:52.945Z,101543.41
2023-05-15T04:02:04.101Z,101541.53
2023-05-15T04:04:07.373Z,101546.69
2023-05-15T04:06:09.510Z,101548.16
2023-05-15T04:08:12.631Z,101553.53
2023-05-15T04:10:14.693Z,101551.69
2023-05-15T04:12:17.095Z,101559.53
2023-05-15T04:14:19.080Z,101561.13
2023-05-15T04:16:21.655Z,101568.75
2023-05-15T04:18:23.798Z,101567.16
2023-05-15T04:20:26.213Z,101574.69
2023-05-15T04:22:28.155Z,101578.22
2023-05-15T04:24:30.207Z,101586.47
2023-05-15T04:26:32.338Z,101577.75
2023-05-15T04:28:34.536Z,101585.56
2023-05-15T04:30:36.914Z,101580.00
2023-05-15T04:32:40.453Z,101581.63
2023-05-15T04:34:42.618Z,101584.41
2023-05-15T04:36:44.636Z,101590.38
2023-05-15T04:38:46.721Z,101588.03
2023-05-15T04:40:48.710Z,101582.78
2023-05-15T04:42:50.864Z,101592.13
2023-05-15T04:44:53.672Z,101592.06
2023-05-15T04:46:55.769Z,101601.41
2023-05-15T04:48:57.768Z,101598.78
2023-05-15T04:50:59.982Z,101603.19
2023-05-15T04:53:01.960Z,101598.66
2023-05-15T04:55:04.776Z,101595.09
2023-05-15T04:57:07.053Z,101609.53
2023-05-15T04:59:09.994Z,101609.44
2023-05-15T05:01:12.030Z,101604.31
2023-05-15T05:03:14.346Z,101594.97
2023-05-15T05:05:16.701Z,101599.84
2023-05-15T05:07:18.929Z,101609.44
2023-05-15T05:09:21.128Z,101607.69
2023-05-15T05:11:23.180Z,101616.22
2023-05-15T05:13:25.177Z,101612.75
2023-05-15T05:15:27.366Z,101617.91
2023-05-15T05:17:30.495Z,101615.03
2023-05-15T05:19:32.617Z,101619.34
2023-05-15T05:21:34.712Z,101623.06
2023-05-15T05:23:36.817Z,101616.25
2023-05-15T05:25:38.840Z,101618.53
2023-05-15T05:27:40.925Z,101631.53
2023-05-15T05:29:42.935Z,101635.34
2023-05-15T05:31:47.133Z,101632.28
2023-05-15T05:33:51.408Z,101637.47
2023-05-15T05:35:53.758Z,101645.31
2023-05-15T05:37:56.034Z,101636.66
2023-05-15T05:39:58.123Z,101639.44
2023-05-15T05:42:00.168Z,101646.34
2023-05-15T05:44:02.297Z,101644.41
2023-05-15T05:46:04.359Z,101648.81
2023-05-15T05:48:06.822Z,101650.28
2023-05-15T05:50:09.186Z,101652.88
2023-05-15T05:52:11.249Z,101653.03
2023-05-15T05:54:15.157Z,101649.63
2023-05-15T05:56:17.596Z,101647.19
2023-05-15T05:58:25.640Z,101651.16
2023-05-15T06:00:28.676Z,101656.25
2023-05-15T06:02:31.399Z,101653.09
2023-05-15T06:04:34.503Z,101660.03
2023-05-15T06:06:36.805Z,101663.94
2023-05-15T06:08:38.945Z,101656.31
2023-05-15T06:10:42.494Z,101656.31
2023-05-15T06:12:44.635Z,101671.19
2023-05-15T06:14:46.657Z,101672.06
2023-05-15T06:16:48.753Z,101670.00
2023-05-15T06:18:51.308Z,101675.13
2023-05-15T06:20:53.737Z,101670.06
2023-05-15T06:22:56.229Z,101671.84
2023-05-15T06:25:00.738Z,101665.00
2023-05-15T06:27:02.848Z,101678.03
2023-05-15T06:29:05.097Z,101679.53
2023-05-15T06:31:07.251Z,101683.84
2023-05-15T06:33:09.551Z,101680.28
2023-05-15T06:35:11.798Z,101676.75
2023-05-15T06:37:14.088Z,101685.25
2023-05-15T06:39:16.325Z,101687.09
2023-05-15T06:41:18.411Z,101685.34
2023-05-15T06:43:20.634Z,101687.66
2023-05-15T06:45:22.850Z,101688.69
2023-05-15T06:47:25.845Z,101683.47
2023-05-15T06:49:28.140Z,101692.44
2023-05-15T06:51:30.378Z,101696.53
2023-05-15T06:53:32.640Z,101704.47
2023-05-15T06:55:36.657Z,101701.22
2023-05-15T06:57:38.726Z,101710.53
2023-05-15T06:59:41.042Z,101708.41
2023-05-15T07:01:43.165Z,101706.22
2023-05-15T07:03:45.278Z,101706.44
2023-05-15T07:05:47.531Z,101709.28
2023-05-15T07:07:49.570Z,101717.63
2023-05-15T07:09:51.828Z,101715.09
2023-05-15T07:11:53.851Z,101719.38
2023-05-15T07:13:56.311Z,101714.25
2023-05-15T07:15:58.325Z,101715.97
2023-05-15T07:18:00.556Z,101723.69
2023-05-15T07:20:02.851Z,101721.19
2023-05-15T07:22:05.677Z,101722.09
2023-05-15T07:24:08.328Z,101711.06
2023-05-15T07:26:16.941Z,101715.50
2023-05-15T07:28:23.540Z,101724.09
2023-05-15T07:30:26.461Z,101716.63
2023-05-15T07:32:28.991Z,101718.47
2023-05-15T07:34:31.296Z,101715.00
2023-05-15T07:36:33.396Z,101718.56
2023-05-15T07:38:35.695Z,101721.41
2023-05-15T07:40:37.901Z,101725.69
2023-05-15T07:42:40.022Z,101714.41
2023-05-15T07:44:43.985Z,101722.66
2023-05-15T07:46:47.266Z,101723.88
2023-05-15T07:49:00.262Z,101725.28
2023-05-15T07:51:04.916Z,101733.41
2023-05-15T07:53:07.062Z,101727.84
2023-05-15T07:55:13.583Z,101722.16
2023-05-15T07:57:15.836Z,101731.50
2023-05-15T07:59:17.973Z,101732.41
2023-05-15T08:01:20.173Z,101734.97
2023-05-15T08:03:22.619Z,101742.88
2023-05-15T08:05:25.142Z,101736.34
2023-05-15T08:07:28.130Z,101739.78
2023-05-15T08:09:30.563Z,101737.31
2023-05-15T08:11:32.700Z,101737.47
2023-05-15T08:13:34.789Z,101734.72
2023-05-15T08:15:36.843Z,101745.25
2023-05-15T08:17:39.028Z,101742.88
2023-05-15T08:19:41.746Z,101746.88
2023-05-15T08:21:44.639Z,101744.25
2023-05-15T08:23:47.053Z,101748.47
2023-05-15T08:25:49.111Z,101736.81
2023-05-15T08:27:52.010Z,101734.53
2023-05-15T08:29:55.110Z,101735.41
2023-05-15T08:31:57.154Z,101735.41
2023-05-15T08:34:00.177Z,101736.22
2023-05-15T08:36:02.420Z,101739.94
2023-05-15T08:38:05.507Z,101741.84
2023-05-15T08:40:08.568Z,101737.38
2023-05-15T08:42:13.474Z,101749.56
2023-05-15T08:44:15.991Z,101749.56
2023-05-15T08:46:18.688Z,101747.78
2023-05-15T08:48:25.487Z,101745.00
2023-05-15T08:50:28.904Z,101740.66
2023-05-15T08:52:33.099Z,101736.38
2023-05-15T08:54:35.752Z,101746.91
2023-05-15T08:56:38.275Z,101745.88
2023-05-15T08:58:40.574Z,101746.44
2023-05-15T09:00:43.978Z,101743.09
2023-05-15T09:02:46.158Z,101750.22
2023-05-15T09:04:49.221Z,101739.03
2023-05-15T09:06:52.010Z,101744.34
2023-05-15T09:08:57.243Z,101741.94
2023-05-15T09:11:00.945Z,101746.25
2023-05-15T09:13:04.606Z,101742.13
2023-05-15T09:15:11.090Z,101742.97
2023-05-15T09:17:13.472Z,101746.44
2023-05-15T09:19:16.236Z,101743.81
2023-05-15T09:21:24.486Z,101750.25
2023-05-15T09:23:28.307Z,101749.03
2023-05-15T09:25:38.414Z,101748.28
2023-05-15T09:27:43.745Z,101745.78
2023-05-15T09:29:46.257Z,101739.75
2023-05-15T09:31:48.767Z,101739.75
2023-05-15T09:34:01.878Z,101742.47
2023-05-15T09:36:05.751Z,101751.16
2023-05-15T09:38:10.987Z,101756.59
2023-05-15T09:40:14.158Z,101753.13
2023-05-15T09:42:16.361Z,101747.97
2023-05-15T09:44:21.996Z,101745.63
2023-05-15T09:46:24.656Z,101744.16
2023-05-15T09:48:28.987Z,101748.59
2023-05-15T09:50:34.695Z,101751.00
2023-05-15T09:52:36.879Z,101757.31
2023-05-15T09:54:39.161Z,101756.47
2023-05-15T09:56:43.496Z,101753.31
2023-05-15T09:58:51.886Z,101753.00
2023-05-15T10:00:54.963Z,101755.25
2023-05-15T10:02:59.277Z,101745.75
2023-05-15T10:05:02.037Z,101758.06
2023-05-15T10:07:08.071Z,101758.28
2023-05-15T10:09:11.777Z,101749.72
2023-05-15T10:11:14.021Z,101754.81
2023-05-15T10:13:16.248Z,101752.47
2023-05-15T10:15:20.540Z,101751.63
2023-05-15T10:17:23.609Z,101749.00
2023-05-15T10:19:28.209Z,101740.66
2023-05-15T10:21:34.380Z,101750.00
2023-05-15T10:23:38.348Z,101744.97
2023-05-15T10:25:46.950Z,101749.47
2023-05-15T10:27:51.743Z,101749.53
2023-05-15T10:29:55.520Z,101749.38
2023-05-15T10:32:01.171Z,101734.88
2023-05-15T10:34:05.131Z,101742.75
2023-05-15T10:36:08.977Z,101734.34
2023-05-15T10:38:13.124Z,101742.00
2023-05-15T10:40:17.559Z,101744.72
2023-05-15T10:42:20.257Z,101750.03
2023-05-15T10:44:29.078Z,101739.75
2023-05-15T10:46:34.908Z,101748.97
2023-05-15T10:48:37.929Z,101752.53
2023-05-15T10:50:40.643Z,101744.13
2023-05-15T10:52:43.156Z,101762.22
2023-05-15T10:54:45.825Z,101748.44
2023-05-15T10:56:48.895Z,101760.84
2023-05-15T10:58:54.570Z,101766.06
2023-05-15T11:00:58.117Z,101754.78
2023-05-15T11:03:02.318Z,101747.78
2023-05-15T11:05:05.621Z,101750.16
2023-05-15T11:07:14.108Z,101758.56
2023-05-15T11:09:22.760Z,101755.34
2023-05-15T11:11:48.130Z,101763.19
2023-05-15T11:13:56.772Z,101759.91
2023-05-15T11:15:59.381Z,101766.81
2023-05-15T11:18:05.980Z,101767.06
2023-05-15T11:20:09.044Z,101748.00
2023-05-15T11:22:16.042Z,101760.28
2023-05-15T11:24:18.378Z,101760.31
2023-05-15T11:26:33.467Z,101762.03
2023-05-15T11:28:43.973Z,101772.28
2023-05-15T11:30:53.807Z,101772.31
2023-05-15T11:33:00.968Z,101764.56
2023-05-15T11:35:04.308Z,101770.63
2023-05-15T11:37:17.943Z,101775.94
2023-05-15T11:39:25.139Z,101776.78
2023-05-15T11:41:32.422Z,101770.78
2023-05-15T11:43:36.937Z,101770.69
2023-05-15T11:45:41.155Z,101780.31
2023-05-15T11:47:45.711Z,101772.69
2023-05-15T11:49:50.028Z,101760.53
2023-05-15T11:51:52.606Z,101771.88
2023-05-15T11:53:56.351Z,101776.03
2023-05-15T11:55:59.513Z,101775.22
2023-05-15T11:58:02.708Z,101775.06
2023-05-15T12:00:06.752Z,101777.25
2023-05-15T12:02:09.183Z,101775.44
2023-05-15T12:04:16.559Z,101778.88
2023-05-15T12:06:19.389Z,101780.84
2023-05-15T12:08:22.071Z,101775.63
2023-05-15T12:10:24.863Z,101781.84
2023-05-15T12:12:28.872Z,101773.31
2023-05-15T12:14:32.462Z,101783.72
2023-05-15T12:16:36.793Z,101780.34
2023-05-15T12:18:39.310Z,101779.38
2023-05-15T12:20:46.201Z,101785.69
2023-05-15T12:22:49.193Z,101781.44
2023-05-15T12:24:51.690Z,101774.72
2023-05-15T12:26:55.411Z,101772.16
2023-05-15T12:28:59.863Z,101767.03
2023-05-15T12:31:17.950Z,101769.72
2023-05-15T12:33:20.560Z,101773.22
2023-05-15T12:35:22.909Z,101779.25
2023-05-15T12:37:25.686Z,101777.53
2023-05-15T12:39:28.157Z,101780.94
2023-05-15T12:41:30.901Z,101779.91
2023-05-15T12:43:33.671Z,101787.53
2023-05-15T12:45:40.038Z,101779.72
2023-05-15T12:47:44.077Z,101785.00
2023-05-15T12:49:46.702Z,101788.66
2023-05-15T12:51:49.683Z,101785.13
2023-05-15T12:53:55.255Z,101779.09
2023-05-15T12:55:57.971Z,101779.19
2023-05-15T12:58:02.964Z,101790.44
2023-05-15T13:00:06.028Z,101792.13
2023-05-15T13:02:12.725Z,101791.00
2023-05-15T13:04:17.114Z,101792.72
2023-05-15T13:06:19.860Z,101794.38
2023-05-15T13:08:22.308Z,101792.72
2023-05-15T13:10:26.166Z,101790.78
2023-05-15T13:12:35.261Z,101801.94
2023-05-15T13:14:37.471Z,101789.78
2023-05-15T13:16:43.277Z,101801.16
2023-05-15T13:18:46.116Z,101798.75
2023-05-15T13:21:00.926Z,101793.66
2023-05-15T13:23:03.844Z,101799.03
2023-05-15T13:25:07.359Z,101791.78
2023-05-15T13:27:09.825Z,101785.78
2023-05-15T13:29:12.306Z,101791.91
2023-05-15T13:31:14.847Z,101793.59
2023-05-15T13:33:17.567Z,101803.00
2023-05-15T13:35:20.632Z,101802.09
2023-05-15T13:37:23.184Z,101796.94
2023-05-15T13:39:25.663Z,101796.00
2023-05-15T13:41:28.116Z,101796.06
2023-05-15T13:43:30.956Z,101789.19
2023-05-15T13:45:33.767Z,101787.69
2023-05-15T13:47:37.244Z,101786.94
2023-05-15T13:49:39.588Z,101790.50
2023-05-15T13:51:42.080Z,101792.34
2023-05-15T13:53:45.211Z,101788.94
2023-05-15T13:55:48.003Z,101791.59
2023-05-15T13:57:50.674Z,101788.97
2023-05-15T13:59:53.279Z,101795.06
2023-05-15T14:01:55.833Z,101799.44
2023-05-15T14:03:58.091Z,101800.28
2023-05-15T14:06:01.183Z,101793.31
2023-05-15T14:08:04.378Z,101796.75
2023-05-15T14:10:08.280Z,101793.34
2023-05-15T14:12:11.733Z,101806.28
2023-05-15T14:14:14.236Z,101800.19
2023-05-15T14:16:16.913Z,101795.94
2023-05-15T14:18:19.669Z,101794.22
2023-05-15T14:20:22.409Z,101791.59
2023-05-15T14:22:25.501Z,101792.47
2023-05-15T14:24:27.830Z,101797.63
2023-05-15T14:26:30.304Z,101786.22
2023-05-15T14:28:33.278Z,101795.81
2023-05-15T14:30:35.988Z,101801.13
2023-05-15T14:32:39.708Z,101802.03
2023-05-15T14:34:42.191Z,101810.78
2023-05-15T14:36:44.934Z,101808.13
2023-05-15T14:38:49.449Z,101809.84
2023-05-15T14:41:01.874Z,101813.31
2023-05-15T14:43:04.625Z,101816.69
2023-05-15T14:45:08.309Z,101814.84
2023-05-15T14:47:13.985Z,101814.78
2023-05-15T14:49:16.628Z,101808.78
2023-05-15T14:51:19.995Z,101809.63
2023-05-15T14:53:23.640Z,101817.41
2023-05-15T14:55:26.402Z,101819.25
2023-05-15T14:57:29.652Z,101806.13
2023-05-15T14:59:32.188Z,101811.44
2023-05-15T15:01:34.719Z,101807.25
2023-05-15T15:03:37.921Z,101801.16
2023-05-15T15:05:40.368Z,101815.09
2023-05-15T15:07:49.191Z,101818.59
2023-05-15T15:09:51.627Z,101812.50
2023-05-15T15:11:54.483Z,101809.84
2023-05-15T15:13:57.354Z,101819.44
2023-05-15T15:16:00.144Z,101822.03
2023-05-15T15:18:03.269Z,101825.53
2023-05-15T15:20:06.786Z,101820.25
2023-05-15T15:22:09.547Z,101818.53
2023-05-15T15:24:12.546Z,101814.09
2023-05-15T15:26:16.250Z,101826.19
2023-05-15T15:28:19.044Z,101826.09
2023-05-15T15:30:22.668Z,101843.56
2023-05-15T15:32:25.883Z,101834.03
2023-05-15T15:34:28.353Z,101832.34
2023-05-15T15:36:31.812Z,101827.22
2023-05-15T15:38:34.398Z,101841.19
2023-05-15T15:40:36.792Z,101840.31
2023-05-15T15:42:39.771Z,101839.34
2023-05-15T15:44:43.125Z,101834.97
2023-05-15T15:46:46.910Z,101839.41
2023-05-15T15:48:50.022Z,101841.00
2023-05-15T15:50:59.971Z,101840.13
2023-05-15T15:53:02.573Z,101842.50
2023-05-15T15:55:05.767Z,101838.34
2023-05-15T15:57:08.165Z,101838.38
2023-05-15T15:59:10.406Z,101842.78
2023-05-15T16:01:19.770Z,101839.41
2023-05-15T16:03:22.586Z,101844.66
2023-05-15T16:05:25.245Z,101837.69
2023-05-15T16:07:27.572Z,101849.91
2023-05-15T16:09:30.328Z,101851.66
2023-05-15T16:11:33.275Z,101845.56
2023-05-15T16:13:35.698Z,101840.28
2023-05-15T16:15:38.228Z,101847.25
2023-05-15T16:17:41.405Z,101847.22
2023-05-15T16:19:44.336Z,101851.59
2023-05-15T16:21:48.701Z,101848.97
2023-05-15T16:23:51.702Z,101848.91
2023-05-15T16:25:54.235Z,101843.69
2023-05-15T16:27:56.797Z,101854.09
2023-05-15T16:29:59.369Z,101856.69
2023-05-15T16:32:01.926Z,101861.88
2023-05-15T16:34:05.129Z,101868.78
2023-05-15T16:36:07.731Z,101867.84
2023-05-15T16:38:10.410Z,101870.28
2023-05-15T16:40:13.652Z,101869.53
2023-05-15T16:42:17.185Z,101864.19
2023-05-15T16:44:19.932Z,101871.97
2023-05-15T16:46:23.092Z,101866.84
2023-05-15T16:48:28.030Z,101871.97
2023-05-15T16:50:32.951Z,101877.84
2023-05-15T16:52:36.318Z,101874.19
2023-05-15T16:54:41.851Z,101880.34
2023-05-15T16:56:44.563Z,101874.16
2023-05-15T16:58:47.570Z,101876.66
2023-05-15T17:00:52.251Z,101879.28
2023-05-15T17:02:55.139Z,101877.47
2023-05-15T17:04:57.759Z,101885.19
2023-05-15T17:07:00.318Z,101880.81
2023-05-15T17:09:02.756Z,101879.88
2023-05-15T17:11:13.048Z,101878.97
2023-05-15T17:13:20.529Z,101877.94
2023-05-15T17:15:24.634Z,101877.06
2023-05-15T17:17:29.722Z,101883.13
2023-05-15T17:19:36.488Z,101879.84
2023-05-15T17:21:40.920Z,101879.84
2023-05-15T17:23:43.844Z,101881.56
2023-05-15T17:25:46.861Z,101881.44
2023-05-15T17:27:49.951Z,101887.66
2023-05-15T17:29:53.338Z,101885.75
2023-05-15T17:31:56.753Z,101888.34
2023-05-15T17:34:00.709Z,101892.97
2023-05-15T17:36:03.591Z,101898.25
2023-05-15T17:38:06.265Z,101898.03
2023-05-15T17:40:09.603Z,101901.63
2023-05-15T17:42:12.546Z,101907.59
2023-05-15T17:44:14.739Z,101906.75
2023-05-15T17:46:17.203Z,101904.16
2023-05-15T17:48:20.874Z,101911.81
2023-05-15T17:50:23.390Z,101913.53
2023-05-15T17:52:25.750Z,101915.38
2023-05-15T17:54:28.133Z,101913.69
2023-05-15T17:56:30.612Z,101909.34
2023-05-15T17:58:32.887Z,101912.81
2023-05-15T18:00:35.409Z,101921.47
2023-05-15T18:02:37.695Z,101925.44
2023-05-15T18:04:40.134Z,101931.44
2023-05-15T18:06:43.085Z,101932.34
2023-05-15T18:08:45.936Z,101928.75
2023-05-15T18:10:57.162Z,101931.31
2023-05-15T18:13:00.001Z,101941.72
2023-05-15T18:15:02.284Z,101941.34
2023-05-15T18:17:04.938Z,101933.94
2023-05-15T18:19:08.084Z,101936.66
2023-05-15T18:21:10.511Z,101944.53
2023-05-15T18:23:12.861Z,101939.38
2023-05-15T18:25:15.243Z,101943.75
2023-05-15T18:27:17.702Z,101948.91
2023-05-15T18:29:20.375Z,101949.66
2023-05-15T18:31:22.652Z,101957.50
2023-05-15T18:33:25.162Z,101953.25
2023-05-15T18:35:27.866Z,101953.16
2023-05-15T18:37:30.529Z,101966.84
2023-05-15T18:39:32.848Z,101958.25
2023-05-15T18:41:35.074Z,101958.94
2023-05-15T18:43:37.551Z,101964.16
2023-05-15T18:45:40.111Z,101963.44
2023-05-15T18:47:43.220Z,101968.44
2023-05-15T18:49:46.107Z,101966.00
2023-05-15T18:51:48.527Z,101966.91
2023-05-15T18:53:51.088Z,101966.63
2023-05-15T18:55:53.553Z,101968.47
2023-05-15T18:57:56.168Z,101970.97
2023-05-15T18:59:58.431Z,101969.16
2023-05-15T19:02:00.862Z,101970.81
2023-05-15T19:04:04.972Z,101967.16
2023-05-15T19:06:07.342Z,101974.13
2023-05-15T19:08:09.619Z,101981.88
2023-05-15T19:10:12.291Z,101981.84
2023-05-15T19:12:14.569Z,101986.97
2023-05-15T19:14:18.192Z,101996.41
2023-05-15T19:16:20.783Z,101992.97
2023-05-15T19:18:24.005Z,101994.63
2023-05-15T19:20:26.966Z,101997.97
2023-05-15T19:22:29.895Z,102007.44
2023-05-15T19:24:33.492Z,102009.03
2023-05-15T19:26:36.264Z,102007.31
2023-05-15T19:28:38.855Z,102005.06
2023-05-15T19:30:44.829Z,102013.03
2023-05-15T19:32:47.531Z,102008.81
2023-05-15T19:34:50.454Z,102017.31
2023-05-15T19:36:53.376Z,102013.91
2023-05-15T19:38:56.316Z,102009.47
2023-05-15T19:40:58.872Z,102025.19
2023-05-15T19:43:01.318Z,102022.09
2023-05-15T19:45:03.875Z,102019.31
2023-05-15T19:47:06.436Z,102026.22
2023-05-15T19:49:11.841Z,102032.22
2023-05-15T19:51:14.873Z,102032.31
2023-05-15T19:53:17.074Z,102033.22
2023-05-15T19:55:19.424Z,102034.75
2023-05-15T19:57:21.704Z,102033.97
2023-05-15T19:59:23.955Z,102037.22
2023-05-15T20:01:26.422Z,102043.34
2023-05-15T20:03:33.398Z,102038.97
2023-05-15T20:05:40.291Z,102040.59
2023-05-15T20:07:43.481Z,102046.66
2023-05-15T20:09:45.898Z,102046.59
2023-05-15T20:11:48.182Z,102052.63
2023-05-15T20:13:50.690Z,102053.47
2023-05-15T20:15:57.654Z,102046.38
2023-05-15T20:18:00.230Z,102049.97
2023-05-15T20:20:02.947Z,102047.16
2023-05-15T20:22:05.655Z,102048.22
2023-05-15T20:24:08.445Z,102051.56
2023-05-15T20:26:10.788Z,102051.47
2023-05-15T20:28:13.058Z,102054.19
2023-05-15T20:30:15.874Z,102061.84
2023-05-15T20:32:18.537Z,102053.22
2023-05-15T20:34:22.129Z,102058.25
2023-05-15T20:36:25.886Z,102053.94
2023-05-15T20:38:28.711Z,102062.44
2023-05-15T20:40:31.224Z,102067.53
2023-05-15T20:42:33.338Z,102068.34
2023-05-15T20:44:37.002Z,102072.59
2023-05-15T20:46:40.363Z,102075.81
2023-05-15T20:48:42.757Z,102075.03
2023-05-15T20:50:47.010Z,102083.56
2023-05-15T20:52:49.372Z,102081.75
2023-05-15T20:54:51.680Z,102077.56
2023-05-15T20:56:53.816Z,102079.16
2023-05-15T20:58:59.518Z,102076.53
2023-05-15T21:01:02.262Z,102081.69
2023-05-15T21:03:04.583Z,102087.28
2023-05-15T21:05:07.976Z,102085.72
2023-05-15T21:07:10.539Z,102092.28
2023-05-15T21:09:16.843Z,102089.88
2023-05-15T21:11:19.210Z,102101.00
2023-05-15T21:13:21.397Z,102091.25
2023-05-15T21:15:23.471Z,102099.22
2023-05-15T21:17:25.655Z,102096.50
2023-05-15T21:19:27.913Z,102099.91
2023-05-15T21:21:30.646Z,102106.75
2023-05-15T21:23:33.877Z,102109.34
2023-05-15T21:25:36.450Z,102103.31
2023-05-15T21:27:38.745Z,102108.31
2023-05-15T21:29:40.913Z,102104.97
2023-05-15T21:31:43.579Z,102099.59
2023-05-15T21:33:45.979Z,102106.75
2023-05-15T21:35:48.991Z,102103.97
2023-05-15T21:37:51.846Z,102107.41
2023-05-15T21:39:54.017Z,102112.59
2023-05-15T21:41:56.278Z,102111.66
2023-05-15T21:43:58.528Z,102115.84
2023-05-15T21:46:00.826Z,102114.94
2023-05-15T21:48:03.196Z,102115.84
2023-05-15T21:50:06.485Z,102118.28
2023-05-15T21:52:08.560Z,102119.03
2023-05-15T21:54:10.653Z,102124.22
2023-05-15T21:56:12.847Z,102123.31
2023-05-15T21:58:14.853Z,102119.41
2023-05-15T22:00:17.461Z,102114.25
2023-05-15T22:02:19.663Z,102115.16
2023-05-15T22:04:21.783Z,102117.31
2023-05-15T22:06:23.857Z,102119.16
2023-05-15T22:08:26.204Z,102125.88
2023-05-15T22:10:28.487Z,102127.31
2023-05-15T22:12:32.360Z,102117.16
2023-05-15T22:14:35.107Z,102127.50
2023-05-15T22:16:37.531Z,102130.13
2023-05-15T22:18:39.923Z,102127.59
2023-05-15T22:20:45.890Z,102130.81
2023-05-15T22:22:48.063Z,102130.88
2023-05-15T22:24:50.165Z,102130.06
2023-05-15T22:26:52.245Z,102129.19
2023-05-15T22:28:56.156Z,102131.84
2023-05-15T22:30:58.270Z,102128.78
2023-05-15T22:33:00.406Z,102127.25
2023-05-15T22:35:02.866Z,102133.22
2023-05-15T22:37:05.182Z,102135.50
2023-05-15T22:39:08.125Z,102138.84
2023-05-15T22:41:10.241Z,102137.09
2023-05-15T22:43:12.311Z,102132.63
2023-05-15T22:45:15.449Z,102139.66
2023-05-15T22:47:18.645Z,102149.06
2023-05-15T22:49:25.653Z,102150.91
2023-05-15T22:51:29.659Z,102147.44
2023-05-15T22:53:31.867Z,102144.72
2023-05-15T22:55:33.930Z,102146.47
2023-05-15T22:57:36.091Z,102151.41
2023-05-15T22:59:38.073Z,102148.97
2023-05-15T23:01:40.247Z,102145.19
2023-05-15T23:03:42.340Z,102149.69
2023-05-15T23:05:45.439Z,102151.31
2023-05-15T23:07:47.652Z,102150.53
2023-05-15T23:09:49.667Z,102148.78
2023-05-15T23:11:51.897Z,102152.22
2023-05-15T23:13:54.405Z,102151.41
2023-05-15T23:15:56.392Z,102158.41
2023-05-15T23:17:58.498Z,102153.97
2023-05-15T23:20:00.953Z,102151.19
2023-05-15T23:22:03.378Z,102154.78
2023-05-15T23:24:05.754Z,102157.19
2023-05-15T23:26:07.683Z,102155.34
2023-05-15T23:28:09.895Z,102158.72